sensor_id;sensor_type;location;lat;lon;timestamp;P1;durP1;ratioP1;P2;durP2;ratioP2
11893;SDS011;6006;49.696;8.662;2022-10-13T00:01:26;12.07;;;8.23;;
11893;SDS011;6006;49.696;8.662;2022-10-13T00:03:53;9.20;;;7.50;;
11893;SDS011;6006;49.696;8.662;2022-10-13T00:06:22;15.00;;;9.43;;
11893;SDS011;6006;49.696;8.662;2022-10-13T00:08:51;14.43;;;9.33;;
11893;SDS011;6006;49.696;8.662;2022-10-13T00:11:19;14.53;;;9.40;;
11893;SDS011;6006;49.696;8.662;2022-10-13T00:13:48;16.63;;;10.27;;
11893;SDS011;6006;49.696;8.662;2022-10-13T00:16:16;16.20;;;10.03;;
11893;SDS011;6006;49.696;8.662;2022-10-13T00:18:47;10.67;;;8.80;;
11893;SDS011;6006;49.696;8.662;2022-10-13T00:21:15;12.20;;;9.43;;
11893;SDS011;6006;49.696;8.662;2022-10-13T00:23:48;14.93;;;9.50;;
11893;SDS011;6006;49.696;8.662;2022-10-13T00:26:15;13.80;;;9.30;;
11893;SDS011;6006;49.696;8.662;2022-10-13T00:28:43;13.57;;;8.90;;
11893;SDS011;6006;49.696;8.662;2022-10-13T00:31:13;12.47;;;9.40;;
11893;SDS011;6006;49.696;8.662;2022-10-13T00:33:41;12.33;;;9.30;;
11893;SDS011;6006;49.696;8.662;2022-10-13T00:36:09;13.37;;;9.60;;
11893;SDS011;6006;49.696;8.662;2022-10-13T00:38:36;14.77;;;10.80;;
11893;SDS011;6006;49.696;8.662;2022-10-13T00:41:04;14.30;;;10.77;;
11893;SDS011;6006;49.696;8.662;2022-10-13T00:43:48;17.00;;;11.50;;
11893;SDS011;6006;49.696;8.662;2022-10-13T00:46:18;18.50;;;10.47;;
11893;SDS011;6006;49.696;8.662;2022-10-13T00:48:45;17.03;;;11.07;;
11893;SDS011;6006;49.696;8.662;2022-10-13T00:51:15;14.73;;;9.47;;
11893;SDS011;6006;49.696;8.662;2022-10-13T00:53:46;16.85;;;11.55;;
11893;SDS011;6006;49.696;8.662;2022-10-13T00:56:14;17.40;;;11.33;;
11893;SDS011;6006;49.696;8.662;2022-10-13T00:58:44;14.63;;;9.10;;
11893;SDS011;6006;49.696;8.662;2022-10-13T01:01:12;12.00;;;8.80;;
11893;SDS011;6006;49.696;8.662;2022-10-13T01:03:39;12.83;;;9.53;;
11893;SDS011;6006;49.696;8.662;2022-10-13T01:06:06;12.30;;;10.20;;
11893;SDS011;6006;49.696;8.662;2022-10-13T01:08:36;14.20;;;10.23;;
11893;SDS011;6006;49.696;8.662;2022-10-13T01:11:07;11.87;;;9.97;;
11893;SDS011;6006;49.696;8.662;2022-10-13T01:13:47;14.17;;;10.93;;
11893;SDS011;6006;49.696;8.662;2022-10-13T01:16:22;14.50;;;9.67;;
11893;SDS011;6006;49.696;8.662;2022-10-13T01:19:02;11.90;;;9.23;;
11893;SDS011;6006;49.696;8.662;2022-10-13T01:21:45;12.40;;;9.10;;
11893;SDS011;6006;49.696;8.662;2022-10-13T01:24:37;11.30;;;9.23;;
11893;SDS011;6006;49.696;8.662;2022-10-13T01:27:18;14.80;;;9.40;;
11893;SDS011;6006;49.696;8.662;2022-10-13T01:30:07;12.43;;;8.90;;
11893;SDS011;6006;49.696;8.662;2022-10-13T01:32:42;14.30;;;9.37;;
11893;SDS011;6006;49.696;8.662;2022-10-13T01:35:28;11.07;;;8.60;;
11893;SDS011;6006;49.696;8.662;2022-10-13T01:38:01;12.93;;;9.23;;
11893;SDS011;6006;49.696;8.662;2022-10-13T01:40:35;15.00;;;9.43;;
11893;SDS011;6006;49.696;8.662;2022-10-13T01:43:06;13.73;;;10.87;;
11893;SDS011;6006;49.696;8.662;2022-10-13T01:45:39;16.93;;;9.97;;
11893;SDS011;6006;49.696;8.662;2022-10-13T01:48:12;12.43;;;9.40;;
11893;SDS011;6006;49.696;8.662;2022-10-13T01:50:41;15.57;;;9.70;;
11893;SDS011;6006;49.696;8.662;2022-10-13T01:53:09;12.97;;;10.37;;
11893;SDS011;6006;49.696;8.662;2022-10-13T01:55:46;12.27;;;8.87;;
11893;SDS011;6006;49.696;8.662;2022-10-13T01:58:15;13.47;;;9.30;;
11893;SDS011;6006;49.696;8.662;2022-10-13T02:00:44;14.80;;;9.37;;
11893;SDS011;6006;49.696;8.662;2022-10-13T02:03:22;12.37;;;9.33;;
11893;SDS011;6006;49.696;8.662;2022-10-13T02:06:01;13.73;;;9.67;;
11893;SDS011;6006;49.696;8.662;2022-10-13T02:08:38;16.00;;;9.70;;
11893;SDS011;6006;49.696;8.662;2022-10-13T02:11:10;14.43;;;9.27;;
11893;SDS011;6006;49.696;8.662;2022-10-13T02:13:40;14.43;;;9.67;;
11893;SDS011;6006;49.696;8.662;2022-10-13T02:16:11;15.93;;;9.53;;
11893;SDS011;6006;49.696;8.662;2022-10-13T02:18:40;12.87;;;9.57;;
11893;SDS011;6006;49.696;8.662;2022-10-13T02:21:09;12.83;;;9.73;;
11893;SDS011;6006;49.696;8.662;2022-10-13T02:23:36;13.73;;;9.50;;
11893;SDS011;6006;49.696;8.662;2022-10-13T02:26:03;11.67;;;8.80;;
11893;SDS011;6006;49.696;8.662;2022-10-13T02:28:30;13.57;;;8.97;;
11893;SDS011;6006;49.696;8.662;2022-10-13T02:30:58;12.27;;;8.97;;
11893;SDS011;6006;49.696;8.662;2022-10-13T02:33:26;12.70;;;9.40;;
11893;SDS011;6006;49.696;8.662;2022-10-13T02:35:53;13.80;;;9.63;;
11893;SDS011;6006;49.696;8.662;2022-10-13T02:38:20;12.93;;;8.93;;
11893;SDS011;6006;49.696;8.662;2022-10-13T02:40:47;13.90;;;9.00;;
11893;SDS011;6006;49.696;8.662;2022-10-13T02:43:14;12.53;;;8.67;;
11893;SDS011;6006;49.696;8.662;2022-10-13T02:45:41;11.67;;;8.50;;
11893;SDS011;6006;49.696;8.662;2022-10-13T02:48:07;13.50;;;9.00;;
11893;SDS011;6006;49.696;8.662;2022-10-13T02:50:36;11.20;;;8.97;;
11893;SDS011;6006;49.696;8.662;2022-10-13T02:53:03;11.10;;;8.60;;
11893;SDS011;6006;49.696;8.662;2022-10-13T02:55:29;13.60;;;8.40;;
11893;SDS011;6006;49.696;8.662;2022-10-13T02:57:56;17.00;;;8.43;;
11893;SDS011;6006;49.696;8.662;2022-10-13T03:00:23;13.93;;;8.10;;
11893;SDS011;6006;49.696;8.662;2022-10-13T03:02:50;11.77;;;8.57;;
11893;SDS011;6006;49.696;8.662;2022-10-13T03:05:18;10.20;;;7.97;;
11893;SDS011;6006;49.696;8.662;2022-10-13T03:07:46;11.93;;;9.00;;
11893;SDS011;6006;49.696;8.662;2022-10-13T03:10:13;12.87;;;9.27;;
11893;SDS011;6006;49.696;8.662;2022-10-13T03:12:40;13.10;;;9.27;;
11893;SDS011;6006;49.696;8.662;2022-10-13T03:15:08;11.53;;;8.93;;
11893;SDS011;6006;49.696;8.662;2022-10-13T03:17:35;12.50;;;8.33;;
11893;SDS011;6006;49.696;8.662;2022-10-13T03:20:02;11.37;;;8.03;;
11893;SDS011;6006;49.696;8.662;2022-10-13T03:22:30;11.80;;;7.93;;
11893;SDS011;6006;49.696;8.662;2022-10-13T03:24:59;15.10;;;8.73;;
11893;SDS011;6006;49.696;8.662;2022-10-13T03:27:26;12.57;;;8.77;;
11893;SDS011;6006;49.696;8.662;2022-10-13T03:29:53;12.90;;;8.87;;
11893;SDS011;6006;49.696;8.662;2022-10-13T03:32:19;10.80;;;8.87;;
11893;SDS011;6006;49.696;8.662;2022-10-13T03:34:46;13.63;;;9.77;;
11893;SDS011;6006;49.696;8.662;2022-10-13T03:37:14;12.60;;;9.07;;
11893;SDS011;6006;49.696;8.662;2022-10-13T03:39:41;12.20;;;8.53;;
11893;SDS011;6006;49.696;8.662;2022-10-13T03:42:09;12.57;;;8.80;;
11893;SDS011;6006;49.696;8.662;2022-10-13T03:44:36;12.83;;;9.13;;
11893;SDS011;6006;49.696;8.662;2022-10-13T03:47:04;11.43;;;8.00;;
11893;SDS011;6006;49.696;8.662;2022-10-13T03:49:31;11.37;;;8.90;;
11893;SDS011;6006;49.696;8.662;2022-10-13T03:51:58;17.43;;;9.87;;
11893;SDS011;6006;49.696;8.662;2022-10-13T03:54:24;14.77;;;9.30;;
11893;SDS011;6006;49.696;8.662;2022-10-13T03:56:51;13.57;;;8.83;;
11893;SDS011;6006;49.696;8.662;2022-10-13T03:59:19;15.87;;;9.47;;
11893;SDS011;6006;49.696;8.662;2022-10-13T04:01:46;12.30;;;9.43;;
11893;SDS011;6006;49.696;8.662;2022-10-13T04:04:13;14.53;;;9.50;;
11893;SDS011;6006;49.696;8.662;2022-10-13T04:06:40;21.10;;;10.13;;
11893;SDS011;6006;49.696;8.662;2022-10-13T04:09:07;15.50;;;10.73;;
11893;SDS011;6006;49.696;8.662;2022-10-13T04:11:34;17.07;;;10.13;;
11893;SDS011;6006;49.696;8.662;2022-10-13T04:14:01;17.63;;;10.43;;
11893;SDS011;6006;49.696;8.662;2022-10-13T04:16:30;18.23;;;10.27;;
11893;SDS011;6006;49.696;8.662;2022-10-13T04:18:57;13.80;;;9.47;;
11893;SDS011;6006;49.696;8.662;2022-10-13T04:21:27;17.67;;;11.53;;
11893;SDS011;6006;49.696;8.662;2022-10-13T04:23:55;15.90;;;10.97;;
11893;SDS011;6006;49.696;8.662;2022-10-13T04:26:23;14.60;;;10.10;;
11893;SDS011;6006;49.696;8.662;2022-10-13T04:28:52;14.67;;;10.70;;
11893;SDS011;6006;49.696;8.662;2022-10-13T04:31:20;15.97;;;10.77;;
11893;SDS011;6006;49.696;8.662;2022-10-13T04:33:49;14.17;;;9.67;;
11893;SDS011;6006;49.696;8.662;2022-10-13T04:36:16;13.97;;;10.13;;
11893;SDS011;6006;49.696;8.662;2022-10-13T04:38:44;23.10;;;12.00;;
11893;SDS011;6006;49.696;8.662;2022-10-13T04:41:12;14.77;;;10.97;;
11893;SDS011;6006;49.696;8.662;2022-10-13T04:43:39;19.10;;;11.40;;
11893;SDS011;6006;49.696;8.662;2022-10-13T04:46:07;16.97;;;11.63;;
11893;SDS011;6006;49.696;8.662;2022-10-13T04:48:36;16.13;;;11.47;;
11893;SDS011;6006;49.696;8.662;2022-10-13T04:51:05;17.23;;;11.37;;
11893;SDS011;6006;49.696;8.662;2022-10-13T04:53:33;20.90;;;11.10;;
11893;SDS011;6006;49.696;8.662;2022-10-13T04:56:02;17.43;;;11.50;;
11893;SDS011;6006;49.696;8.662;2022-10-13T04:58:31;20.97;;;12.10;;
11893;SDS011;6006;49.696;8.662;2022-10-13T05:00:58;18.80;;;11.93;;
11893;SDS011;6006;49.696;8.662;2022-10-13T05:03:25;22.03;;;13.40;;
11893;SDS011;6006;49.696;8.662;2022-10-13T05:05:52;19.80;;;11.93;;
11893;SDS011;6006;49.696;8.662;2022-10-13T05:08:20;18.90;;;12.73;;
11893;SDS011;6006;49.696;8.662;2022-10-13T05:10:53;19.40;;;12.00;;
11893;SDS011;6006;49.696;8.662;2022-10-13T05:13:21;21.47;;;12.20;;
11893;SDS011;6006;49.696;8.662;2022-10-13T05:15:48;21.30;;;12.53;;
11893;SDS011;6006;49.696;8.662;2022-10-13T05:18:15;20.60;;;13.27;;
11893;SDS011;6006;49.696;8.662;2022-10-13T05:20:42;22.30;;;13.27;;
11893;SDS011;6006;49.696;8.662;2022-10-13T05:23:10;23.07;;;14.40;;
11893;SDS011;6006;49.696;8.662;2022-10-13T05:25:38;27.00;;;14.50;;
11893;SDS011;6006;49.696;8.662;2022-10-13T05:28:06;29.37;;;15.73;;
11893;SDS011;6006;49.696;8.662;2022-10-13T05:30:33;24.20;;;13.93;;
11893;SDS011;6006;49.696;8.662;2022-10-13T05:33:00;28.60;;;15.57;;
11893;SDS011;6006;49.696;8.662;2022-10-13T05:35:27;28.23;;;14.13;;
11893;SDS011;6006;49.696;8.662;2022-10-13T05:37:54;27.97;;;15.60;;
11893;SDS011;6006;49.696;8.662;2022-10-13T05:40:20;26.10;;;14.57;;
11893;SDS011;6006;49.696;8.662;2022-10-13T05:42:50;23.53;;;14.87;;
11893;SDS011;6006;49.696;8.662;2022-10-13T05:45:18;20.83;;;12.83;;
11893;SDS011;6006;49.696;8.662;2022-10-13T05:47:46;23.93;;;13.53;;
11893;SDS011;6006;49.696;8.662;2022-10-13T05:50:13;21.70;;;12.30;;
11893;SDS011;6006;49.696;8.662;2022-10-13T05:52:40;23.50;;;12.87;;
11893;SDS011;6006;49.696;8.662;2022-10-13T05:55:08;20.10;;;12.30;;
11893;SDS011;6006;49.696;8.662;2022-10-13T05:57:39;22.93;;;12.43;;
11893;SDS011;6006;49.696;8.662;2022-10-13T06:00:11;23.20;;;12.27;;
11893;SDS011;6006;49.696;8.662;2022-10-13T06:02:40;22.87;;;13.90;;
11893;SDS011;6006;49.696;8.662;2022-10-13T06:05:12;21.97;;;13.57;;
11893;SDS011;6006;49.696;8.662;2022-10-13T06:07:41;22.03;;;13.50;;
11893;SDS011;6006;49.696;8.662;2022-10-13T06:10:10;24.13;;;14.73;;
11893;SDS011;6006;49.696;8.662;2022-10-13T06:12:38;26.03;;;13.97;;
11893;SDS011;6006;49.696;8.662;2022-10-13T06:15:05;22.43;;;13.30;;
11893;SDS011;6006;49.696;8.662;2022-10-13T06:17:35;26.10;;;14.40;;
11893;SDS011;6006;49.696;8.662;2022-10-13T06:20:03;23.43;;;12.63;;
11893;SDS011;6006;49.696;8.662;2022-10-13T06:22:31;26.07;;;12.87;;
11893;SDS011;6006;49.696;8.662;2022-10-13T06:24:58;19.90;;;11.87;;
11893;SDS011;6006;49.696;8.662;2022-10-13T06:27:25;20.80;;;12.57;;
11893;SDS011;6006;49.696;8.662;2022-10-13T06:29:53;17.40;;;11.50;;
11893;SDS011;6006;49.696;8.662;2022-10-13T06:32:20;18.50;;;12.00;;
11893;SDS011;6006;49.696;8.662;2022-10-13T06:34:48;22.13;;;12.77;;
11893;SDS011;6006;49.696;8.662;2022-10-13T06:37:15;20.67;;;13.10;;
11893;SDS011;6006;49.696;8.662;2022-10-13T06:39:42;19.37;;;12.97;;
11893;SDS011;6006;49.696;8.662;2022-10-13T06:42:09;19.70;;;12.80;;
11893;SDS011;6006;49.696;8.662;2022-10-13T06:44:36;21.20;;;13.37;;
11893;SDS011;6006;49.696;8.662;2022-10-13T06:47:03;20.57;;;13.07;;
11893;SDS011;6006;49.696;8.662;2022-10-13T06:49:30;22.60;;;12.00;;
11893;SDS011;6006;49.696;8.662;2022-10-13T06:51:58;16.17;;;10.60;;
11893;SDS011;6006;49.696;8.662;2022-10-13T06:54:25;17.43;;;10.67;;
11893;SDS011;6006;49.696;8.662;2022-10-13T06:56:53;17.80;;;10.80;;
11893;SDS011;6006;49.696;8.662;2022-10-13T06:59:19;18.17;;;11.90;;
11893;SDS011;6006;49.696;8.662;2022-10-13T07:01:46;20.03;;;10.63;;
11893;SDS011;6006;49.696;8.662;2022-10-13T07:04:15;18.73;;;11.97;;
11893;SDS011;6006;49.696;8.662;2022-10-13T07:06:42;20.07;;;12.80;;
11893;SDS011;6006;49.696;8.662;2022-10-13T07:09:10;20.30;;;11.67;;
11893;SDS011;6006;49.696;8.662;2022-10-13T07:11:37;21.50;;;12.70;;
11893;SDS011;6006;49.696;8.662;2022-10-13T07:14:04;20.20;;;12.40;;
11893;SDS011;6006;49.696;8.662;2022-10-13T07:16:31;19.03;;;12.77;;
11893;SDS011;6006;49.696;8.662;2022-10-13T07:18:58;20.60;;;13.30;;
11893;SDS011;6006;49.696;8.662;2022-10-13T07:21:25;27.03;;;16.70;;
11893;SDS011;6006;49.696;8.662;2022-10-13T07:23:52;23.23;;;16.00;;
11893;SDS011;6006;49.696;8.662;2022-10-13T07:26:20;30.17;;;20.23;;
11893;SDS011;6006;49.696;8.662;2022-10-13T07:28:47;33.40;;;20.23;;
11893;SDS011;6006;49.696;8.662;2022-10-13T07:31:15;25.97;;;15.77;;
11893;SDS011;6006;49.696;8.662;2022-10-13T07:33:43;24.03;;;16.27;;
11893;SDS011;6006;49.696;8.662;2022-10-13T07:36:12;20.97;;;14.80;;
11893;SDS011;6006;49.696;8.662;2022-10-13T07:38:39;24.57;;;14.83;;
11893;SDS011;6006;49.696;8.662;2022-10-13T07:41:07;23.33;;;15.07;;
11893;SDS011;6006;49.696;8.662;2022-10-13T07:43:36;22.60;;;15.20;;
11893;SDS011;6006;49.696;8.662;2022-10-13T07:46:04;22.93;;;14.83;;
11893;SDS011;6006;49.696;8.662;2022-10-13T07:48:32;22.47;;;14.63;;
11893;SDS011;6006;49.696;8.662;2022-10-13T07:51:01;18.53;;;14.10;;
11893;SDS011;6006;49.696;8.662;2022-10-13T07:53:29;20.23;;;14.93;;
11893;SDS011;6006;49.696;8.662;2022-10-13T07:55:58;24.13;;;15.57;;
11893;SDS011;6006;49.696;8.662;2022-10-13T07:58:25;29.93;;;16.07;;
11893;SDS011;6006;49.696;8.662;2022-10-13T08:00:57;21.50;;;15.70;;
11893;SDS011;6006;49.696;8.662;2022-10-13T08:03:24;21.37;;;14.73;;
11893;SDS011;6006;49.696;8.662;2022-10-13T08:05:52;21.20;;;14.63;;
11893;SDS011;6006;49.696;8.662;2022-10-13T08:08:19;22.70;;;14.97;;
11893;SDS011;6006;49.696;8.662;2022-10-13T08:10:46;19.37;;;13.00;;
11893;SDS011;6006;49.696;8.662;2022-10-13T08:13:13;15.40;;;12.07;;
11893;SDS011;6006;49.696;8.662;2022-10-13T08:15:40;19.37;;;13.27;;
11893;SDS011;6006;49.696;8.662;2022-10-13T08:18:10;18.40;;;12.63;;
11893;SDS011;6006;49.696;8.662;2022-10-13T08:20:38;18.37;;;13.43;;
11893;SDS011;6006;49.696;8.662;2022-10-13T08:23:05;18.73;;;13.10;;
11893;SDS011;6006;49.696;8.662;2022-10-13T08:25:35;17.60;;;13.50;;
11893;SDS011;6006;49.696;8.662;2022-10-13T08:28:03;19.93;;;13.50;;
11893;SDS011;6006;49.696;8.662;2022-10-13T08:30:30;18.97;;;13.27;;
11893;SDS011;6006;49.696;8.662;2022-10-13T08:32:57;16.77;;;12.83;;
11893;SDS011;6006;49.696;8.662;2022-10-13T08:35:25;20.03;;;12.60;;
11893;SDS011;6006;49.696;8.662;2022-10-13T08:37:52;17.63;;;13.13;;
11893;SDS011;6006;49.696;8.662;2022-10-13T08:40:19;17.60;;;12.70;;
11893;SDS011;6006;49.696;8.662;2022-10-13T08:42:47;17.00;;;11.97;;
11893;SDS011;6006;49.696;8.662;2022-10-13T08:45:16;17.53;;;12.57;;
11893;SDS011;6006;49.696;8.662;2022-10-13T08:47:46;14.93;;;11.13;;
11893;SDS011;6006;49.696;8.662;2022-10-13T08:50:17;16.00;;;11.23;;
11893;SDS011;6006;49.696;8.662;2022-10-13T08:52:48;17.23;;;12.13;;
11893;SDS011;6006;49.696;8.662;2022-10-13T08:55:23;15.60;;;11.43;;
11893;SDS011;6006;49.696;8.662;2022-10-13T08:57:55;15.83;;;11.03;;
11893;SDS011;6006;49.696;8.662;2022-10-13T09:00:22;15.80;;;10.80;;
11893;SDS011;6006;49.696;8.662;2022-10-13T09:02:49;18.27;;;12.75;;
11893;SDS011;6006;49.696;8.662;2022-10-13T09:05:18;15.60;;;12.17;;
11893;SDS011;6006;49.696;8.662;2022-10-13T09:07:54;18.20;;;11.77;;
11893;SDS011;6006;49.696;8.662;2022-10-13T09:10:24;18.17;;;12.40;;
11893;SDS011;6006;49.696;8.662;2022-10-13T09:12:51;15.33;;;12.20;;
11893;SDS011;6006;49.696;8.662;2022-10-13T09:15:18;23.07;;;13.37;;
11893;SDS011;6006;49.696;8.662;2022-10-13T09:17:45;17.50;;;12.80;;
11893;SDS011;6006;49.696;8.662;2022-10-13T09:20:33;19.40;;;13.20;;
11893;SDS011;6006;49.696;8.662;2022-10-13T09:23:03;20.20;;;13.67;;
11893;SDS011;6006;49.696;8.662;2022-10-13T09:25:37;19.43;;;14.33;;
11893;SDS011;6006;49.696;8.662;2022-10-13T09:28:09;16.47;;;12.93;;
11893;SDS011;6006;49.696;8.662;2022-10-13T09:30:41;17.17;;;12.87;;
11893;SDS011;6006;49.696;8.662;2022-10-13T09:33:21;18.33;;;13.70;;
11893;SDS011;6006;49.696;8.662;2022-10-13T09:36:05;17.67;;;13.27;;
11893;SDS011;6006;49.696;8.662;2022-10-13T09:38:37;22.03;;;14.73;;
11893;SDS011;6006;49.696;8.662;2022-10-13T09:41:05;21.63;;;14.73;;
11893;SDS011;6006;49.696;8.662;2022-10-13T09:43:42;18.83;;;13.57;;
11893;SDS011;6006;49.696;8.662;2022-10-13T09:46:37;23.13;;;14.83;;
11893;SDS011;6006;49.696;8.662;2022-10-13T09:49:06;21.77;;;15.43;;
11893;SDS011;6006;49.696;8.662;2022-10-13T09:51:57;22.17;;;14.80;;
11893;SDS011;6006;49.696;8.662;2022-10-13T09:54:32;19.40;;;12.90;;
11893;SDS011;6006;49.696;8.662;2022-10-13T09:57:06;22.40;;;15.53;;
11893;SDS011;6006;49.696;8.662;2022-10-13T09:59:42;26.73;;;16.73;;
11893;SDS011;6006;49.696;8.662;2022-10-13T10:02:14;21.53;;;15.47;;
11893;SDS011;6006;49.696;8.662;2022-10-13T10:04:47;19.47;;;14.33;;
11893;SDS011;6006;49.696;8.662;2022-10-13T10:07:18;21.77;;;15.23;;
11893;SDS011;6006;49.696;8.662;2022-10-13T10:09:50;24.10;;;16.83;;
11893;SDS011;6006;49.696;8.662;2022-10-13T10:12:19;22.30;;;14.97;;
11893;SDS011;6006;49.696;8.662;2022-10-13T10:14:48;22.07;;;15.60;;
11893;SDS011;6006;49.696;8.662;2022-10-13T10:17:18;18.93;;;14.73;;
11893;SDS011;6006;49.696;8.662;2022-10-13T10:19:52;19.73;;;14.17;;
11893;SDS011;6006;49.696;8.662;2022-10-13T10:22:31;20.80;;;14.57;;
11893;SDS011;6006;49.696;8.662;2022-10-13T10:25:06;17.50;;;13.07;;
11893;SDS011;6006;49.696;8.662;2022-10-13T10:27:44;18.93;;;13.93;;
11893;SDS011;6006;49.696;8.662;2022-10-13T10:30:18;15.67;;;12.17;;
11893;SDS011;6006;49.696;8.662;2022-10-13T10:32:46;17.80;;;12.60;;
11893;SDS011;6006;49.696;8.662;2022-10-13T10:35:19;17.90;;;11.43;;
11893;SDS011;6006;49.696;8.662;2022-10-13T10:37:57;14.90;;;11.43;;
11893;SDS011;6006;49.696;8.662;2022-10-13T10:40:35;19.13;;;13.77;;
11893;SDS011;6006;49.696;8.662;2022-10-13T10:43:24;21.07;;;13.20;;
11893;SDS011;6006;49.696;8.662;2022-10-13T10:45:58;16.23;;;12.40;;
11893;SDS011;6006;49.696;8.662;2022-10-13T10:48:27;18.13;;;13.10;;
11893;SDS011;6006;49.696;8.662;2022-10-13T10:51:00;21.90;;;13.33;;
11893;SDS011;6006;49.696;8.662;2022-10-13T10:53:30;16.50;;;11.97;;
11893;SDS011;6006;49.696;8.662;2022-10-13T10:56:04;18.90;;;13.13;;
11893;SDS011;6006;49.696;8.662;2022-10-13T10:58:39;19.07;;;12.93;;
11893;SDS011;6006;49.696;8.662;2022-10-13T11:01:15;21.07;;;13.47;;
11893;SDS011;6006;49.696;8.662;2022-10-13T11:03:53;19.30;;;13.30;;
11893;SDS011;6006;49.696;8.662;2022-10-13T11:06:25;18.80;;;13.27;;
11893;SDS011;6006;49.696;8.662;2022-10-13T11:08:59;16.70;;;11.63;;
11893;SDS011;6006;49.696;8.662;2022-10-13T11:11:35;14.23;;;11.20;;
11893;SDS011;6006;49.696;8.662;2022-10-13T11:14:18;14.00;;;10.20;;
11893;SDS011;6006;49.696;8.662;2022-10-13T11:17:01;14.20;;;11.27;;
11893;SDS011;6006;49.696;8.662;2022-10-13T11:19:44;12.90;;;10.40;;
11893;SDS011;6006;49.696;8.662;2022-10-13T11:22:14;14.40;;;10.70;;
11893;SDS011;6006;49.696;8.662;2022-10-13T11:24:46;14.97;;;11.93;;
11893;SDS011;6006;49.696;8.662;2022-10-13T11:27:22;15.73;;;12.67;;
11893;SDS011;6006;49.696;8.662;2022-10-13T11:29:52;15.40;;;12.53;;
11893;SDS011;6006;49.696;8.662;2022-10-13T11:35:22;15.57;;;10.43;;
11893;SDS011;6006;49.696;8.662;2022-10-13T11:37:57;14.90;;;11.63;;
11893;SDS011;6006;49.696;8.662;2022-10-13T11:40:37;12.77;;;10.40;;
11893;SDS011;6006;49.696;8.662;2022-10-13T11:43:16;12.90;;;10.55;;
11893;SDS011;6006;49.696;8.662;2022-10-13T11:52:04;11.45;;;8.77;;
11893;SDS011;6006;49.696;8.662;2022-10-13T11:54:46;9.43;;;8.38;;
11893;SDS011;6006;49.696;8.662;2022-10-13T11:57:19;12.45;;;7.90;;
11893;SDS011;6006;49.696;8.662;2022-10-13T11:59:49;11.80;;;10.05;;
11893;SDS011;6006;49.696;8.662;2022-10-13T12:02:19;15.18;;;9.43;;
11893;SDS011;6006;49.696;8.662;2022-10-13T12:04:58;13.75;;;10.35;;
11893;SDS011;6006;49.696;8.662;2022-10-13T12:07:28;17.00;;;11.80;;
11893;SDS011;6006;49.696;8.662;2022-10-13T12:09:59;13.00;;;8.82;;
11893;SDS011;6006;49.696;8.662;2022-10-13T12:12:27;11.18;;;7.88;;
11893;SDS011;6006;49.696;8.662;2022-10-13T12:14:56;10.80;;;8.40;;
11893;SDS011;6006;49.696;8.662;2022-10-13T12:17:28;13.63;;;9.13;;
11893;SDS011;6006;49.696;8.662;2022-10-13T12:19:56;11.30;;;8.02;;
11893;SDS011;6006;49.696;8.662;2022-10-13T12:22:25;9.93;;;7.28;;
11893;SDS011;6006;49.696;8.662;2022-10-13T12:24:56;10.85;;;7.50;;
11893;SDS011;6006;49.696;8.662;2022-10-13T12:27:24;11.00;;;8.30;;
11893;SDS011;6006;49.696;8.662;2022-10-13T12:29:52;12.80;;;7.40;;
11893;SDS011;6006;49.696;8.662;2022-10-13T12:32:22;8.50;;;7.20;;
11893;SDS011;6006;49.696;8.662;2022-10-13T12:34:50;14.65;;;7.75;;
11893;SDS011;6006;49.696;8.662;2022-10-13T12:37:20;14.18;;;9.07;;
11893;SDS011;6006;49.696;8.662;2022-10-13T12:39:52;26.92;;;13.43;;
11893;SDS011;6006;49.696;8.662;2022-10-13T12:42:21;18.70;;;12.23;;
11893;SDS011;6006;49.696;8.662;2022-10-13T12:44:52;18.35;;;12.77;;
11893;SDS011;6006;49.696;8.662;2022-10-13T12:47:37;15.98;;;12.68;;
11893;SDS011;6006;49.696;8.662;2022-10-13T12:50:21;19.58;;;11.93;;
11893;SDS011;6006;49.696;8.662;2022-10-13T12:53:01;16.50;;;12.63;;
11893;SDS011;6006;49.696;8.662;2022-10-13T12:55:30;14.93;;;10.75;;
11893;SDS011;6006;49.696;8.662;2022-10-13T12:57:58;14.13;;;11.32;;
11893;SDS011;6006;49.696;8.662;2022-10-13T13:00:25;18.05;;;12.60;;
11893;SDS011;6006;49.696;8.662;2022-10-13T13:02:56;18.33;;;13.30;;
11893;SDS011;6006;49.696;8.662;2022-10-13T13:05:28;19.60;;;12.50;;
11893;SDS011;6006;49.696;8.662;2022-10-13T13:07:56;17.83;;;14.02;;
11893;SDS011;6006;49.696;8.662;2022-10-13T13:10:23;16.00;;;12.85;;
11893;SDS011;6006;49.696;8.662;2022-10-13T13:12:51;15.68;;;12.02;;
11893;SDS011;6006;49.696;8.662;2022-10-13T13:15:30;14.50;;;10.70;;
11893;SDS011;6006;49.696;8.662;2022-10-13T13:21:03;15.35;;;10.77;;
11893;SDS011;6006;49.696;8.662;2022-10-13T13:23:31;14.85;;;11.85;;
11893;SDS011;6006;49.696;8.662;2022-10-13T13:26:00;14.50;;;10.82;;
11893;SDS011;6006;49.696;8.662;2022-10-13T13:28:29;14.07;;;10.88;;
11893;SDS011;6006;49.696;8.662;2022-10-13T13:30:57;16.67;;;12.43;;
11893;SDS011;6006;49.696;8.662;2022-10-13T13:33:24;15.40;;;11.80;;
11893;SDS011;6006;49.696;8.662;2022-10-13T13:35:52;15.15;;;11.10;;
11893;SDS011;6006;49.696;8.662;2022-10-13T13:38:20;15.88;;;11.77;;
11893;SDS011;6006;49.696;8.662;2022-10-13T13:40:47;17.27;;;12.48;;
11893;SDS011;6006;49.696;8.662;2022-10-13T13:43:13;13.77;;;12.07;;
11893;SDS011;6006;49.696;8.662;2022-10-13T13:45:40;18.17;;;13.18;;
11893;SDS011;6006;49.696;8.662;2022-10-13T13:48:08;20.10;;;14.40;;
11893;SDS011;6006;49.696;8.662;2022-10-13T13:50:37;15.00;;;11.75;;
11893;SDS011;6006;49.696;8.662;2022-10-13T13:53:06;15.73;;;11.45;;
11893;SDS011;6006;49.696;8.662;2022-10-13T13:55:32;17.55;;;12.52;;
11893;SDS011;6006;49.696;8.662;2022-10-13T13:58:00;19.85;;;14.40;;
11893;SDS011;6006;49.696;8.662;2022-10-13T14:00:27;19.02;;;13.02;;
11893;SDS011;6006;49.696;8.662;2022-10-13T14:02:54;20.88;;;13.50;;
11893;SDS011;6006;49.696;8.662;2022-10-13T14:05:21;19.85;;;13.07;;
11893;SDS011;6006;49.696;8.662;2022-10-13T14:07:48;26.75;;;20.33;;
11893;SDS011;6006;49.696;8.662;2022-10-13T14:10:20;15.88;;;13.38;;
11893;SDS011;6006;49.696;8.662;2022-10-13T14:12:47;16.38;;;13.45;;
11893;SDS011;6006;49.696;8.662;2022-10-13T14:15:14;14.75;;;12.90;;
11893;SDS011;6006;49.696;8.662;2022-10-13T14:17:41;18.77;;;13.32;;
11893;SDS011;6006;49.696;8.662;2022-10-13T14:20:08;20.60;;;13.75;;
11893;SDS011;6006;49.696;8.662;2022-10-13T14:22:36;16.35;;;12.95;;
11893;SDS011;6006;49.696;8.662;2022-10-13T14:25:04;16.15;;;11.88;;
11893;SDS011;6006;49.696;8.662;2022-10-13T14:27:33;17.17;;;13.75;;
11893;SDS011;6006;49.696;8.662;2022-10-13T14:30:01;18.63;;;13.15;;
11893;SDS011;6006;49.696;8.662;2022-10-13T14:32:28;17.25;;;12.45;;
11893;SDS011;6006;49.696;8.662;2022-10-13T14:34:55;34.25;;;17.45;;
11893;SDS011;6006;49.696;8.662;2022-10-13T14:37:21;18.40;;;12.23;;
11893;SDS011;6006;49.696;8.662;2022-10-13T14:39:48;21.92;;;13.23;;
11893;SDS011;6006;49.696;8.662;2022-10-13T14:42:15;19.48;;;13.48;;
11893;SDS011;6006;49.696;8.662;2022-10-13T14:44:44;18.85;;;13.35;;
11893;SDS011;6006;49.696;8.662;2022-10-13T14:47:11;17.23;;;13.45;;
11893;SDS011;6006;49.696;8.662;2022-10-13T14:49:38;18.20;;;13.88;;
11893;SDS011;6006;49.696;8.662;2022-10-13T14:52:05;16.60;;;14.20;;
11893;SDS011;6006;49.696;8.662;2022-10-13T14:54:32;19.58;;;14.43;;
11893;SDS011;6006;49.696;8.662;2022-10-13T14:56:59;19.50;;;14.05;;
11893;SDS011;6006;49.696;8.662;2022-10-13T14:59:29;14.15;;;11.50;;
11893;SDS011;6006;49.696;8.662;2022-10-13T15:01:57;15.20;;;12.75;;
11893;SDS011;6006;49.696;8.662;2022-10-13T15:04:24;15.43;;;13.50;;
11893;SDS011;6006;49.696;8.662;2022-10-13T15:06:51;13.35;;;10.80;;